sensor_id;sensor_type;location;lat;lon;timestamp;pressure;altitude;pressure_sealevel;temperature
68012;BMP180;54794;48.348;7.878;2022-08-01T00:00:08;99213.00;;;27.00
68012;BMP180;54794;48.348;7.878;2022-08-01T00:02:37;99218.00;;;27.00
68012;BMP180;54794;48.348;7.878;2022-08-01T00:05:08;99205.00;;;26.90
68012;BMP180;54794;48.348;7.878;2022-08-01T00:07:36;99211.00;;;26.80
68012;BMP180;54794;48.348;7.878;2022-08-01T00:10:07;99214.00;;;26.80
68012;BMP180;54794;48.348;7.878;2022-08-01T00:12:35;99219.00;;;26.80
68012;BMP180;54794;48.348;7.878;2022-08-01T00:15:03;99209.00;;;26.70
68012;BMP180;54794;48.348;7.878;2022-08-01T00:17:31;99223.00;;;26.70
68012;BMP180;54794;48.348;7.878;2022-08-01T00:19:58;99221.00;;;26.60
68012;BMP180;54794;48.348;7.878;2022-08-01T00:22:25;99221.00;;;26.60
68012;BMP180;54794;48.348;7.878;2022-08-01T00:24:52;99224.00;;;26.60
68012;BMP180;54794;48.348;7.878;2022-08-01T00:27:19;99213.00;;;26.60
68012;BMP180;54794;48.348;7.878;2022-08-01T00:29:46;99221.00;;;26.60
68012;BMP180;54794;48.348;7.878;2022-08-01T00:32:32;99226.00;;;26.60
68012;BMP180;54794;48.348;7.878;2022-08-01T00:34:59;99229.00;;;26.50
68012;BMP180;54794;48.348;7.878;2022-08-01T00:37:26;99233.00;;;26.50
68012;BMP180;54794;48.348;7.878;2022-08-01T00:39:53;99222.00;;;26.50
68012;BMP180;54794;48.348;7.878;2022-08-01T00:42:20;99226.00;;;26.50
68012;BMP180;54794;48.348;7.878;2022-08-01T00:44:47;99233.00;;;26.40
68012;BMP180;54794;48.348;7.878;2022-08-01T00:47:14;99232.00;;;26.40
68012;BMP180;54794;48.348;7.878;2022-08-01T00:49:41;99221.00;;;26.40
68012;BMP180;54794;48.348;7.878;2022-08-01T00:52:09;99211.00;;;26.30
68012;BMP180;54794;48.348;7.878;2022-08-01T00:54:37;99221.00;;;26.30
68012;BMP180;54794;48.348;7.878;2022-08-01T00:57:04;99220.00;;;26.30
68012;BMP180;54794;48.348;7.878;2022-08-01T00:59:36;99225.00;;;26.30
68012;BMP180;54794;48.348;7.878;2022-08-01T01:02:07;99210.00;;;26.20
68012;BMP180;54794;48.348;7.878;2022-08-01T01:04:42;99214.00;;;26.20
68012;BMP180;54794;48.348;7.878;2022-08-01T01:07:29;99230.00;;;26.10
68012;BMP180;54794;48.348;7.878;2022-08-01T01:10:15;99226.00;;;26.10
68012;BMP180;54794;48.348;7.878;2022-08-01T01:13:06;99227.00;;;26.00
68012;BMP180;54794;48.348;7.878;2022-08-01T01:15:59;99222.00;;;25.90
68012;BMP180;54794;48.348;7.878;2022-08-01T01:18:38;99231.00;;;25.90
68012;BMP180;54794;48.348;7.878;2022-08-01T01:29:41;99226.00;;;25.70
68012;BMP180;54794;48.348;7.878;2022-08-01T01:32:42;99224.00;;;25.60
68012;BMP180;54794;48.348;7.878;2022-08-01T01:35:18;99211.00;;;25.60
68012;BMP180;54794;48.348;7.878;2022-08-01T01:37:51;99227.00;;;25.50
68012;BMP180;54794;48.348;7.878;2022-08-01T01:40:21;99229.00;;;25.50
68012;BMP180;54794;48.348;7.878;2022-08-01T01:42:50;99223.00;;;25.50
68012;BMP180;54794;48.348;7.878;2022-08-01T01:45:19;99222.00;;;25.40
68012;BMP180;54794;48.348;7.878;2022-08-01T01:47:47;99219.00;;;25.40
68012;BMP180;54794;48.348;7.878;2022-08-01T01:50:15;99219.00;;;25.30
68012;BMP180;54794;48.348;7.878;2022-08-01T01:52:45;99228.00;;;25.30
68012;BMP180;54794;48.348;7.878;2022-08-01T01:55:13;99218.00;;;25.30
68012;BMP180;54794;48.348;7.878;2022-08-01T01:57:43;99219.00;;;25.20
68012;BMP180;54794;48.348;7.878;2022-08-01T02:00:12;99224.00;;;25.20
68012;BMP180;54794;48.348;7.878;2022-08-01T02:02:41;99222.00;;;25.20
68012;BMP180;54794;48.348;7.878;2022-08-01T02:05:11;99227.00;;;25.10
68012;BMP180;54794;48.348;7.878;2022-08-01T02:07:39;99220.00;;;25.10
68012;BMP180;54794;48.348;7.878;2022-08-01T02:10:09;99218.00;;;25.00
68012;BMP180;54794;48.348;7.878;2022-08-01T02:12:39;99232.00;;;25.00
68012;BMP180;54794;48.348;7.878;2022-08-01T02:15:09;99226.00;;;25.00
68012;BMP180;54794;48.348;7.878;2022-08-01T02:17:43;99207.00;;;25.00
68012;BMP180;54794;48.348;7.878;2022-08-01T02:20:12;99228.00;;;24.90
68012;BMP180;54794;48.348;7.878;2022-08-01T02:22:57;99226.00;;;24.90
68012;BMP180;54794;48.348;7.878;2022-08-01T02:25:31;99205.00;;;24.90
68012;BMP180;54794;48.348;7.878;2022-08-01T02:28:10;99224.00;;;24.90
68012;BMP180;54794;48.348;7.878;2022-08-01T02:30:43;99224.00;;;24.90
68012;BMP180;54794;48.348;7.878;2022-08-01T02:33:33;99210.00;;;24.80
68012;BMP180;54794;48.348;7.878;2022-08-01T02:36:03;99217.00;;;24.80
68012;BMP180;54794;48.348;7.878;2022-08-01T02:38:55;99214.00;;;24.80
68012;BMP180;54794;48.348;7.878;2022-08-01T02:41:25;99217.00;;;24.70
68012;BMP180;54794;48.348;7.878;2022-08-01T02:44:02;99213.00;;;24.70
68012;BMP180;54794;48.348;7.878;2022-08-01T02:46:44;99218.00;;;24.70
68012;BMP180;54794;48.348;7.878;2022-08-01T02:49:13;99219.00;;;24.60
68012;BMP180;54794;48.348;7.878;2022-08-01T02:51:42;99208.00;;;24.60
68012;BMP180;54794;48.348;7.878;2022-08-01T02:54:11;99215.00;;;24.60
68012;BMP180;54794;48.348;7.878;2022-08-01T02:56:39;99218.00;;;24.60
68012;BMP180;54794;48.348;7.878;2022-08-01T02:59:15;99211.00;;;24.50
68012;BMP180;54794;48.348;7.878;2022-08-01T03:01:49;99209.00;;;24.50
68012;BMP180;54794;48.348;7.878;2022-08-01T03:04:25;99209.00;;;24.50
68012;BMP180;54794;48.348;7.878;2022-08-01T03:06:57;99205.00;;;24.40
68012;BMP180;54794;48.348;7.878;2022-08-01T03:09:27;99195.00;;;24.40
68012;BMP180;54794;48.348;7.878;2022-08-01T03:12:00;99201.00;;;24.40
68012;BMP180;54794;48.348;7.878;2022-08-01T03:14:30;99210.00;;;24.40
68012;BMP180;54794;48.348;7.878;2022-08-01T03:17:01;99193.00;;;24.30
68012;BMP180;54794;48.348;7.878;2022-08-01T03:19:33;99204.00;;;24.30
68012;BMP180;54794;48.348;7.878;2022-08-01T03:22:01;99205.00;;;24.30
68012;BMP180;54794;48.348;7.878;2022-08-01T03:24:32;99209.00;;;24.30
68012;BMP180;54794;48.348;7.878;2022-08-01T03:27:00;99197.00;;;24.20
68012;BMP180;54794;48.348;7.878;2022-08-01T03:29:29;99206.00;;;24.20
68012;BMP180;54794;48.348;7.878;2022-08-01T03:32:00;99198.00;;;24.20
68012;BMP180;54794;48.348;7.878;2022-08-01T03:34:28;99202.00;;;24.10
68012;BMP180;54794;48.348;7.878;2022-08-01T03:37:05;99211.00;;;24.10
68012;BMP180;54794;48.348;7.878;2022-08-01T03:39:44;99200.00;;;24.10
68012;BMP180;54794;48.348;7.878;2022-08-01T03:42:19;99207.00;;;24.00
68012;BMP180;54794;48.348;7.878;2022-08-01T03:44:59;99204.00;;;24.00
68012;BMP180;54794;48.348;7.878;2022-08-01T03:47:33;99203.00;;;24.00
68012;BMP180;54794;48.348;7.878;2022-08-01T03:50:13;99208.00;;;23.90
68012;BMP180;54794;48.348;7.878;2022-08-01T03:52:44;99196.00;;;23.90
68012;BMP180;54794;48.348;7.878;2022-08-01T03:55:15;99204.00;;;23.90
68012;BMP180;54794;48.348;7.878;2022-08-01T03:57:46;99212.00;;;23.90
68012;BMP180;54794;48.348;7.878;2022-08-01T04:00:14;99194.00;;;23.90
68012;BMP180;54794;48.348;7.878;2022-08-01T04:02:49;99204.00;;;23.80
68012;BMP180;54794;48.348;7.878;2022-08-01T04:05:17;99203.00;;;23.80
68012;BMP180;54794;48.348;7.878;2022-08-01T04:07:50;99201.00;;;23.80
68012;BMP180;54794;48.348;7.878;2022-08-01T04:10:23;99209.00;;;23.70
68012;BMP180;54794;48.348;7.878;2022-08-01T04:12:51;99207.00;;;23.80
68012;BMP180;54794;48.348;7.878;2022-08-01T04:15:18;99207.00;;;23.70
68012;BMP180;54794;48.348;7.878;2022-08-01T04:17:47;99214.00;;;23.70
68012;BMP180;54794;48.348;7.878;2022-08-01T04:20:14;99215.00;;;23.70
68012;BMP180;54794;48.348;7.878;2022-08-01T04:22:42;99210.00;;;23.70
68012;BMP180;54794;48.348;7.878;2022-08-01T04:25:42;99206.00;;;23.70
68012;BMP180;54794;48.348;7.878;2022-08-01T04:28:13;99213.00;;;23.70
68012;BMP180;54794;48.348;7.878;2022-08-01T04:30:46;99206.00;;;23.70
68012;BMP180;54794;48.348;7.878;2022-08-01T04:33:18;99221.00;;;23.70
68012;BMP180;54794;48.348;7.878;2022-08-01T04:35:48;99222.00;;;23.70
68012;BMP180;54794;48.348;7.878;2022-08-01T04:38:34;99218.00;;;23.70
68012;BMP180;54794;48.348;7.878;2022-08-01T04:41:05;99225.00;;;23.70
68012;BMP180;54794;48.348;7.878;2022-08-01T04:43:37;99229.00;;;23.70
68012;BMP180;54794;48.348;7.878;2022-08-01T04:46:06;99227.00;;;23.70
68012;BMP180;54794;48.348;7.878;2022-08-01T04:48:37;99231.00;;;23.70
68012;BMP180;54794;48.348;7.878;2022-08-01T04:51:12;99229.00;;;23.70
68012;BMP180;54794;48.348;7.878;2022-08-01T04:53:43;99220.00;;;23.70
68012;BMP180;54794;48.348;7.878;2022-08-01T04:56:10;99226.00;;;23.70
68012;BMP180;54794;48.348;7.878;2022-08-01T04:58:41;99220.00;;;23.70
68012;BMP180;54794;48.348;7.878;2022-08-01T05:01:09;99228.00;;;23.80
68012;BMP180;54794;48.348;7.878;2022-08-01T05:03:36;99234.00;;;23.80
68012;BMP180;54794;48.348;7.878;2022-08-01T05:06:05;99224.00;;;23.80
68012;BMP180;54794;48.348;7.878;2022-08-01T05:08:36;99226.00;;;23.80
68012;BMP180;54794;48.348;7.878;2022-08-01T05:11:03;99223.00;;;23.80
68012;BMP180;54794;48.348;7.878;2022-08-01T05:13:30;99231.00;;;23.80
68012;BMP180;54794;48.348;7.878;2022-08-01T05:15:57;99227.00;;;23.80
68012;BMP180;54794;48.348;7.878;2022-08-01T05:18:25;99223.00;;;23.80
68012;BMP180;54794;48.348;7.878;2022-08-01T05:20:54;99220.00;;;23.90
68012;BMP180;54794;48.348;7.878;2022-08-01T05:23:21;99217.00;;;23.90
68012;BMP180;54794;48.348;7.878;2022-08-01T05:26:10;99235.00;;;23.90
68012;BMP180;54794;48.348;7.878;2022-08-01T05:28:41;99225.00;;;23.90
68012;BMP180;54794;48.348;7.878;2022-08-01T05:31:08;99234.00;;;23.90
68012;BMP180;54794;48.348;7.878;2022-08-01T05:33:35;99233.00;;;24.00
68012;BMP180;54794;48.348;7.878;2022-08-01T05:36:02;99230.00;;;24.00
68012;BMP180;54794;48.348;7.878;2022-08-01T05:38:29;99215.00;;;24.10
68012;BMP180;54794;48.348;7.878;2022-08-01T05:40:56;99234.00;;;24.10
68012;BMP180;54794;48.348;7.878;2022-08-01T05:43:23;99233.00;;;24.20
68012;BMP180;54794;48.348;7.878;2022-08-01T05:45:55;99228.00;;;24.20
68012;BMP180;54794;48.348;7.878;2022-08-01T05:48:22;99212.00;;;24.30
68012;BMP180;54794;48.348;7.878;2022-08-01T05:50:49;99228.00;;;24.30
68012;BMP180;54794;48.348;7.878;2022-08-01T05:53:16;99205.00;;;24.40
68012;BMP180;54794;48.348;7.878;2022-08-01T05:55:43;99219.00;;;24.40
68012;BMP180;54794;48.348;7.878;2022-08-01T05:58:10;99229.00;;;24.50
68012;BMP180;54794;48.348;7.878;2022-08-01T06:00:39;99206.00;;;24.50
68012;BMP180;54794;48.348;7.878;2022-08-01T06:03:05;99217.00;;;24.50
68012;BMP180;54794;48.348;7.878;2022-08-01T06:05:32;99225.00;;;24.70
68012;BMP180;54794;48.348;7.878;2022-08-01T06:07:59;99222.00;;;24.70
68012;BMP180;54794;48.348;7.878;2022-08-01T06:10:26;99230.00;;;24.80
68012;BMP180;54794;48.348;7.878;2022-08-01T06:12:53;99224.00;;;24.90
68012;BMP180;54794;48.348;7.878;2022-08-01T06:15:20;99231.00;;;24.90
68012;BMP180;54794;48.348;7.878;2022-08-01T06:17:47;99217.00;;;25.00
68012;BMP180;54794;48.348;7.878;2022-08-01T06:20:14;99230.00;;;25.10
68012;BMP180;54794;48.348;7.878;2022-08-01T06:22:42;99207.00;;;25.10
68012;BMP180;54794;48.348;7.878;2022-08-01T06:25:09;99222.00;;;25.20
68012;BMP180;54794;48.348;7.878;2022-08-01T06:27:36;99222.00;;;25.30
68012;BMP180;54794;48.348;7.878;2022-08-01T06:30:04;99225.00;;;25.30
68012;BMP180;54794;48.348;7.878;2022-08-01T06:32:32;99228.00;;;25.50
68012;BMP180;54794;48.348;7.878;2022-08-01T06:34:59;99225.00;;;25.50
68012;BMP180;54794;48.348;7.878;2022-08-01T06:37:31;99223.00;;;25.70
68012;BMP180;54794;48.348;7.878;2022-08-01T06:40:07;99231.00;;;25.80
68012;BMP180;54794;48.348;7.878;2022-08-01T06:42:42;99216.00;;;25.80
68012;BMP180;54794;48.348;7.878;2022-08-01T06:45:12;99230.00;;;26.00
68012;BMP180;54794;48.348;7.878;2022-08-01T06:47:40;99207.00;;;26.10
68012;BMP180;54794;48.348;7.878;2022-08-01T06:50:09;99232.00;;;26.20
68012;BMP180;54794;48.348;7.878;2022-08-01T06:52:37;99238.00;;;26.30
68012;BMP180;54794;48.348;7.878;2022-08-01T06:55:05;99232.00;;;26.30
68012;BMP180;54794;48.348;7.878;2022-08-01T06:57:32;99222.00;;;26.50
68012;BMP180;54794;48.348;7.878;2022-08-01T07:00:06;99230.00;;;26.60
68012;BMP180;54794;48.348;7.878;2022-08-01T07:02:35;99239.00;;;26.70
68012;BMP180;54794;48.348;7.878;2022-08-01T07:05:04;99235.00;;;26.90
68012;BMP180;54794;48.348;7.878;2022-08-01T07:07:31;99234.00;;;27.00
68012;BMP180;54794;48.348;7.878;2022-08-01T07:09:58;99230.00;;;27.10
68012;BMP180;54794;48.348;7.878;2022-08-01T07:12:25;99237.00;;;27.20
68012;BMP180;54794;48.348;7.878;2022-08-01T07:14:52;99236.00;;;27.40
68012;BMP180;54794;48.348;7.878;2022-08-01T07:17:19;99229.00;;;27.50
68012;BMP180;54794;48.348;7.878;2022-08-01T07:19:47;99221.00;;;27.60
68012;BMP180;54794;48.348;7.878;2022-08-01T07:22:14;99240.00;;;27.70
68012;BMP180;54794;48.348;7.878;2022-08-01T07:24:49;99231.00;;;27.80
68012;BMP180;54794;48.348;7.878;2022-08-01T07:27:20;99228.00;;;27.90
68012;BMP180;54794;48.348;7.878;2022-08-01T07:29:52;99230.00;;;28.00
68012;BMP180;54794;48.348;7.878;2022-08-01T07:32:19;99230.00;;;28.10
68012;BMP180;54794;48.348;7.878;2022-08-01T07:34:46;99224.00;;;28.20
68012;BMP180;54794;48.348;7.878;2022-08-01T07:37:13;99222.00;;;28.30
68012;BMP180;54794;48.348;7.878;2022-08-01T07:39:40;99229.00;;;28.40
68012;BMP180;54794;48.348;7.878;2022-08-01T07:42:07;99231.00;;;28.40
68012;BMP180;54794;48.348;7.878;2022-08-01T07:44:35;99231.00;;;28.50
68012;BMP180;54794;48.348;7.878;2022-08-01T07:47:03;99231.00;;;28.60
68012;BMP180;54794;48.348;7.878;2022-08-01T07:49:30;99220.00;;;28.70
68012;BMP180;54794;48.348;7.878;2022-08-01T07:52:04;99226.00;;;28.80
68012;BMP180;54794;48.348;7.878;2022-08-01T07:54:32;99232.00;;;28.90
68012;BMP180;54794;48.348;7.878;2022-08-01T07:57:01;99237.00;;;29.00
68012;BMP180;54794;48.348;7.878;2022-08-01T07:59:29;99231.00;;;29.10
68012;BMP180;54794;48.348;7.878;2022-08-01T08:01:56;99227.00;;;29.20
68012;BMP180;54794;48.348;7.878;2022-08-01T08:04:23;99229.00;;;29.30
68012;BMP180;54794;48.348;7.878;2022-08-01T08:06:50;99228.00;;;29.40
68012;BMP180;54794;48.348;7.878;2022-08-01T08:09:17;99216.00;;;29.40
68012;BMP180;54794;48.348;7.878;2022-08-01T08:11:45;99230.00;;;29.50
68012;BMP180;54794;48.348;7.878;2022-08-01T08:14:15;99223.00;;;29.60
68012;BMP180;54794;48.348;7.878;2022-08-01T08:16:42;99228.00;;;29.70
68012;BMP180;54794;48.348;7.878;2022-08-01T08:19:11;99216.00;;;29.80
68012;BMP180;54794;48.348;7.878;2022-08-01T08:21:38;99219.00;;;29.90
68012;BMP180;54794;48.348;7.878;2022-08-01T08:24:07;99229.00;;;29.90
68012;BMP180;54794;48.348;7.878;2022-08-01T08:26:58;99219.00;;;30.00
68012;BMP180;54794;48.348;7.878;2022-08-01T08:29:26;99222.00;;;30.00
68012;BMP180;54794;48.348;7.878;2022-08-01T08:31:54;99216.00;;;30.10
68012;BMP180;54794;48.348;7.878;2022-08-01T08:34:24;99226.00;;;30.20
68012;BMP180;54794;48.348;7.878;2022-08-01T08:36:51;99216.00;;;30.30
68012;BMP180;54794;48.348;7.878;2022-08-01T08:39:19;99218.00;;;30.30
68012;BMP180;54794;48.348;7.878;2022-08-01T08:41:47;99201.00;;;30.30
68012;BMP180;54794;48.348;7.878;2022-08-01T08:44:16;99202.00;;;30.40
68012;BMP180;54794;48.348;7.878;2022-08-01T08:46:49;99211.00;;;30.50
68012;BMP180;54794;48.348;7.878;2022-08-01T08:49:25;99213.00;;;30.70
68012;BMP180;54794;48.348;7.878;2022-08-01T08:52:02;99207.00;;;30.80
68012;BMP180;54794;48.348;7.878;2022-08-01T08:54:32;99208.00;;;30.80
68012;BMP180;54794;48.348;7.878;2022-08-01T08:57:00;99208.00;;;30.90
68012;BMP180;54794;48.348;7.878;2022-08-01T08:59:28;99211.00;;;31.00
68012;BMP180;54794;48.348;7.878;2022-08-01T09:01:56;99208.00;;;31.10
68012;BMP180;54794;48.348;7.878;2022-08-01T09:04:25;99202.00;;;31.20
68012;BMP180;54794;48.348;7.878;2022-08-01T09:06:54;99210.00;;;31.30
68012;BMP180;54794;48.348;7.878;2022-08-01T09:09:22;99201.00;;;31.40
68012;BMP180;54794;48.348;7.878;2022-08-01T09:11:50;99209.00;;;31.60
68012;BMP180;54794;48.348;7.878;2022-08-01T09:14:25;99210.00;;;31.70
68012;BMP180;54794;48.348;7.878;2022-08-01T09:19:55;99217.00;;;31.90
68012;BMP180;54794;48.348;7.878;2022-08-01T09:22:25;99209.00;;;32.00
68012;BMP180;54794;48.348;7.878;2022-08-01T09:25:09;99220.00;;;32.10
68012;BMP180;54794;48.348;7.878;2022-08-01T09:27:38;99220.00;;;32.20
68012;BMP180;54794;48.348;7.878;2022-08-01T09:30:14;99214.00;;;32.30
68012;BMP180;54794;48.348;7.878;2022-08-01T09:35:26;99223.00;;;32.50
68012;BMP180;54794;48.348;7.878;2022-08-01T09:38:23;99216.00;;;32.60
68012;BMP180;54794;48.348;7.878;2022-08-01T09:40:58;99215.00;;;32.80
68012;BMP180;54794;48.348;7.878;2022-08-01T09:43:30;99222.00;;;32.90
68012;BMP180;54794;48.348;7.878;2022-08-01T09:46:04;99205.00;;;33.00
68012;BMP180;54794;48.348;7.878;2022-08-01T09:48:31;99207.00;;;33.10
68012;BMP180;54794;48.348;7.878;2022-08-01T09:50:59;99208.00;;;33.20
68012;BMP180;54794;48.348;7.878;2022-08-01T09:53:51;99215.00;;;33.30
68012;BMP180;54794;48.348;7.878;2022-08-01T09:56:22;99200.00;;;33.50
68012;BMP180;54794;48.348;7.878;2022-08-01T09:58:57;99204.00;;;33.60
68012;BMP180;54794;48.348;7.878;2022-08-01T10:01:48;99200.00;;;33.70
68012;BMP180;54794;48.348;7.878;2022-08-01T10:04:19;99204.00;;;33.90
68012;BMP180;54794;48.348;7.878;2022-08-01T10:06:50;99203.00;;;34.00
68012;BMP180;54794;48.348;7.878;2022-08-01T10:09:35;99207.00;;;34.10
68012;BMP180;54794;48.348;7.878;2022-08-01T10:12:08;99197.00;;;34.20
68012;BMP180;54794;48.348;7.878;2022-08-01T10:14:48;99205.00;;;34.30
68012;BMP180;54794;48.348;7.878;2022-08-01T10:17:25;99189.00;;;34.40
68012;BMP180;54794;48.348;7.878;2022-08-01T10:20:13;99196.00;;;34.50
68012;BMP180;54794;48.348;7.878;2022-08-01T10:23:01;99192.00;;;34.60
68012;BMP180;54794;48.348;7.878;2022-08-01T10:25:37;99186.00;;;34.70
68012;BMP180;54794;48.348;7.878;2022-08-01T10:28:17;99178.00;;;34.70
68012;BMP180;54794;48.348;7.878;2022-08-01T10:30:47;99180.00;;;34.90
68012;BMP180;54794;48.348;7.878;2022-08-01T10:33:17;99176.00;;;35.00
68012;BMP180;54794;48.348;7.878;2022-08-01T10:36:05;99180.00;;;35.10
68012;BMP180;54794;48.348;7.878;2022-08-01T10:38:35;99171.00;;;35.20
68012;BMP180;54794;48.348;7.878;2022-08-01T10:41:04;99173.00;;;35.30
68012;BMP180;54794;48.348;7.878;2022-08-01T10:43:35;99174.00;;;35.50
68012;BMP180;54794;48.348;7.878;2022-08-01T10:46:04;99173.00;;;35.60
68012;BMP180;54794;48.348;7.878;2022-08-01T10:49:04;99163.00;;;35.70
68012;BMP180;54794;48.348;7.878;2022-08-01T10:51:38;99170.00;;;35.80
68012;BMP180;54794;48.348;7.878;2022-08-01T10:54:25;99158.00;;;35.80
68012;BMP180;54794;48.348;7.878;2022-08-01T10:56:53;99165.00;;;35.90
68012;BMP180;54794;48.348;7.878;2022-08-01T10:59:28;99167.00;;;36.00
68012;BMP180;54794;48.348;7.878;2022-08-01T11:02:30;99161.00;;;36.00
68012;BMP180;54794;48.348;7.878;2022-08-01T11:05:04;99158.00;;;36.10
68012;BMP180;54794;48.348;7.878;2022-08-01T11:07:54;99159.00;;;36.10
68012;BMP180;54794;48.348;7.878;2022-08-01T11:12:55;99159.00;;;36.30
68012;BMP180;54794;48.348;7.878;2022-08-01T11:15:23;99138.00;;;36.30
68012;BMP180;54794;48.348;7.878;2022-08-01T11:17:59;99147.00;;;36.40
68012;BMP180;54794;48.348;7.878;2022-08-01T11:20:35;99143.00;;;36.50
68012;BMP180;54794;48.348;7.878;2022-08-01T11:28:27;99126.00;;;36.70
68012;BMP180;54794;48.348;7.878;2022-08-01T11:41:33;99122.00;;;37.20
68012;BMP180;54794;48.348;7.878;2022-08-01T11:44:12;99127.00;;;37.30
68012;BMP180;54794;48.348;7.878;2022-08-01T11:47:03;99125.00;;;37.40
68012;BMP180;54794;48.348;7.878;2022-08-01T11:49:48;99118.00;;;37.40
68012;BMP180;54794;48.348;7.878;2022-08-01T11:52:31;99120.00;;;37.50
68012;BMP180;54794;48.348;7.878;2022-08-01T11:55:07;99120.00;;;37.50
68012;BMP180;54794;48.348;7.878;2022-08-01T11:57:37;99115.00;;;37.40
68012;BMP180;54794;48.348;7.878;2022-08-01T12:00:12;99120.00;;;37.40
68012;BMP180;54794;48.348;7.878;2022-08-01T12:02:44;99111.00;;;37.40
68012;BMP180;54794;48.348;7.878;2022-08-01T12:05:16;99118.00;;;37.50
68012;BMP180;54794;48.348;7.878;2022-08-01T12:07:49;99120.00;;;37.50
68012;BMP180;54794;48.348;7.878;2022-08-01T12:10:20;99111.00;;;37.50
68012;BMP180;54794;48.348;7.878;2022-08-01T12:12:54;99116.00;;;37.50
68012;BMP180;54794;48.348;7.878;2022-08-01T12:15:24;99115.00;;;37.60
68012;BMP180;54794;48.348;7.878;2022-08-01T12:18:00;99104.00;;;37.60
68012;BMP180;54794;48.348;7.878;2022-08-01T12:20:34;99101.00;;;37.50
68012;BMP180;54794;48.348;7.878;2022-08-01T12:23:12;99098.00;;;37.40
68012;BMP180;54794;48.348;7.878;2022-08-01T12:25:40;99115.00;;;37.40
68012;BMP180;54794;48.348;7.878;2022-08-01T12:28:08;99104.00;;;37.40
68012;BMP180;54794;48.348;7.878;2022-08-01T12:30:37;99107.00;;;37.40
68012;BMP180;54794;48.348;7.878;2022-08-01T12:33:10;99105.00;;;37.50
68012;BMP180;54794;48.348;7.878;2022-08-01T12:35:38;99113.00;;;37.40
68012;BMP180;54794;48.348;7.878;2022-08-01T12:40:44;99110.00;;;37.30
68012;BMP180;54794;48.348;7.878;2022-08-01T12:43:23;99115.00;;;37.30
68012;BMP180;54794;48.348;7.878;2022-08-01T12:45:59;99117.00;;;37.20
68012;BMP180;54794;48.348;7.878;2022-08-01T12:48:28;99122.00;;;37.20
68012;BMP180;54794;48.348;7.878;2022-08-01T12:50:58;99122.00;;;37.10
68012;BMP180;54794;48.348;7.878;2022-08-01T12:53:28;99116.00;;;37.00
68012;BMP180;54794;48.348;7.878;2022-08-01T12:56:08;99116.00;;;36.90
68012;BMP180;54794;48.348;7.878;2022-08-01T12:58:36;99111.00;;;36.80
68012;BMP180;54794;48.348;7.878;2022-08-01T13:01:09;99101.00;;;36.80
68012;BMP180;54794;48.348;7.878;2022-08-01T13:03:38;99101.00;;;36.80
68012;BMP180;54794;48.348;7.878;2022-08-01T13:06:13;99109.00;;;36.90
68012;BMP180;54794;48.348;7.878;2022-08-01T13:08:42;99102.00;;;36.90
68012;BMP180;54794;48.348;7.878;2022-08-01T13:11:14;99110.00;;;36.90
68012;BMP180;54794;48.348;7.878;2022-08-01T13:13:49;99107.00;;;36.90
68012;BMP180;54794;48.348;7.878;2022-08-01T13:16:23;99107.00;;;36.90
68012;BMP180;54794;48.348;7.878;2022-08-01T13:19:13;99108.00;;;36.90
68012;BMP180;54794;48.348;7.878;2022-08-01T13:21:54;99108.00;;;37.00
68012;BMP180;54794;48.348;7.878;2022-08-01T13:24:27;99095.00;;;37.00
68012;BMP180;54794;48.348;7.878;2022-08-01T13:27:21;99100.00;;;37.00
68012;BMP180;54794;48.348;7.878;2022-08-01T13:29:52;99101.00;;;37.00
68012;BMP180;54794;48.348;7.878;2022-08-01T13:32:21;99095.00;;;37.10
68012;BMP180;54794;48.348;7.878;2022-08-01T13:35:08;99095.00;;;37.10
68012;BMP180;54794;48.348;7.878;2022-08-01T13:37:36;99096.00;;;37.00
68012;BMP180;54794;48.348;7.878;2022-08-01T13:40:06;99102.00;;;37.10
68012;BMP180;54794;48.348;7.878;2022-08-01T13:42:34;99102.00;;;37.10
68012;BMP180;54794;48.348;7.878;2022-08-01T13:45:03;99105.00;;;37.10
68012;BMP180;54794;48.348;7.878;2022-08-01T13:47:39;99095.00;;;37.10
68012;BMP180;54794;48.348;7.878;2022-08-01T13:50:27;99090.00;;;37.20
68012;BMP180;54794;48.348;7.878;2022-08-01T13:52:54;99090.00;;;37.20
68012;BMP180;54794;48.348;7.878;2022-08-01T13:55:21;99096.00;;;37.20
68012;BMP180;54794;48.348;7.878;2022-08-01T13:57:47;99105.00;;;37.20
68012;BMP180;54794;48.348;7.878;2022-08-01T14:00:15;99103.00;;;37.20
68012;BMP180;54794;48.348;7.878;2022-08-01T14:02:42;99094.00;;;37.20
68012;BMP180;54794;48.348;7.878;2022-08-01T14:05:09;99099.00;;;37.10
68012;BMP180;54794;48.348;7.878;2022-08-01T14:07:36;99100.00;;;37.10
68012;BMP180;54794;48.348;7.878;2022-08-01T14:10:04;99098.00;;;37.00
68012;BMP180;54794;48.348;7.878;2022-08-01T14:12:47;99100.00;;;36.90
68012;BMP180;54794;48.348;7.878;2022-08-01T14:15:15;99092.00;;;36.80
68012;BMP180;54794;48.348;7.878;2022-08-01T14:18:02;99092.00;;;36.60
68012;BMP180;54794;48.348;7.878;2022-08-01T14:20:32;99082.00;;;36.60
68012;BMP180;54794;48.348;7.878;2022-08-01T14:22:59;99073.00;;;36.60
68012;BMP180;54794;48.348;7.878;2022-08-01T14:25:26;99075.00;;;36.40
68012;BMP180;54794;48.348;7.878;2022-08-01T14:28:13;99082.00;;;36.40
68012;BMP180;54794;48.348;7.878;2022-08-01T14:30:41;99084.00;;;36.40
68012;BMP180;54794;48.348;7.878;2022-08-01T14:33:10;99085.00;;;36.40
68012;BMP180;54794;48.348;7.878;2022-08-01T14:35:38;99096.00;;;36.30
68012;BMP180;54794;48.348;7.878;2022-08-01T14:38:25;99085.00;;;36.20
68012;BMP180;54794;48.348;7.878;2022-08-01T14:40:57;99079.00;;;36.20
68012;BMP180;54794;48.348;7.878;2022-08-01T14:43:25;99081.00;;;36.10
68012;BMP180;54794;48.348;7.878;2022-08-01T14:46:00;99082.00;;;36.00
68012;BMP180;54794;48.348;7.878;2022-08-01T14:48:27;99087.00;;;35.90
68012;BMP180;54794;48.348;7.878;2022-08-01T14:50:56;99080.00;;;35.90
68012;BMP180;54794;48.348;7.878;2022-08-01T14:53:23;99092.00;;;35.80
68012;BMP180;54794;48.348;7.878;2022-08-01T14:55:50;99102.00;;;35.60
68012;BMP180;54794;48.348;7.878;2022-08-01T14:58:17;99092.00;;;35.60
68012;BMP180;54794;48.348;7.878;2022-08-01T15:00:44;99095.00;;;35.50
68012;BMP180;54794;48.348;7.878;2022-08-01T15:03:12;99091.00;;;35.60
68012;BMP180;54794;48.348;7.878;2022-08-01T15:05:39;99101.00;;;35.60
68012;BMP180;54794;48.348;7.878;2022-08-01T15:08:06;99086.00;;;35.60
68012;BMP180;54794;48.348;7.878;2022-08-01T15:10:33;99076.00;;;35.70